Time;durP1;ratioP1;P1;durP2;ratioP2;P2;SDS_P1;SDS_P2;PMS_P1;PMS_P2;Temp;Humidity;BMP_temperature;BMP_pressure;BME280_temperature;BME280_humidity;BME280_pressure;Samples;Min_cycle;Max_cycle;Signal;HPM_P1;HPM_P2
2021/04/26 00:02:14;;;;;;;11.10;2.67;;;11.20;63.90;;;;;;6216215;23;20158;-86
2021/04/26 00:04:40;;;;;;;8.20;2.23;;;11.10;64.30;;;;;;6216162;23;20580;-86
2021/04/26 00:07:06;;;;;;;5.10;2.70;;;11.20;64.00;;;;;;6216521;23;20163;-86
2021/04/26 00:09:31;;;;;;;6.07;2.27;;;11.30;64.00;;;;;;6215691;23;20569;-86
2021/04/26 00:11:57;;;;;;;5.40;2.47;;;11.10;64.60;;;;;;6216192;23;20169;-86
2021/04/26 00:14:23;;;;;;;7.57;2.53;;;11.00;65.00;;;;;;6215954;23;20156;-86
2021/04/26 00:16:48;;;;;;;9.00;2.37;;;10.80;65.60;;;;;;6216750;23;20152;-86
2021/04/26 00:19:14;;;;;;;8.67;2.73;;;10.90;65.80;;;;;;6216034;23;20616;-86
2021/04/26 00:21:41;;;;;;;4.57;2.50;;;11.00;65.50;;;;;;6215958;23;20148;-86
2021/04/26 00:24:07;;;;;;;9.93;2.87;;;10.80;65.90;;;;;;6216040;23;20181;-86
2021/04/26 00:26:33;;;;;;;12.27;2.67;;;10.80;66.00;;;;;;6216171;23;20154;-85
2021/04/26 00:28:59;;;;;;;10.03;2.70;;;10.90;66.10;;;;;;6217420;23;20146;-86
2021/04/26 00:31:24;;;;;;;9.10;2.67;;;10.70;66.40;;;;;;6234441;23;20159;-85
2021/04/26 00:33:50;;;;;;;8.43;2.53;;;10.70;66.90;;;;;;6238611;23;20504;-85
2021/04/26 00:36:16;;;;;;;8.33;3.00;;;10.70;67.40;;;;;;6239645;23;20152;-86
2021/04/26 00:38:42;;;;;;;10.53;2.90;;;10.60;67.80;;;;;;6219497;23;20273;-85
2021/04/26 00:41:08;;;;;;;10.40;2.77;;;10.60;67.70;;;;;;6216689;23;20140;-86
2021/04/26 00:43:34;;;;;;;11.23;2.80;;;10.60;67.90;;;;;;6216261;23;20156;-85
2021/04/26 00:46:00;;;;;;;7.10;2.57;;;10.60;68.00;;;;;;6216038;23;20149;-86
2021/04/26 00:48:25;;;;;;;8.17;2.70;;;10.60;67.90;;;;;;6215842;23;20227;-86
2021/04/26 00:50:51;;;;;;;11.07;2.93;;;10.50;68.50;;;;;;6216150;23;20231;-86
2021/04/26 00:53:17;;;;;;;9.33;2.53;;;10.40;69.10;;;;;;6216159;23;20559;-85
2021/04/26 00:55:43;;;;;;;8.63;2.67;;;10.40;68.90;;;;;;6215549;23;20147;-86
2021/04/26 00:58:10;;;;;;;4.57;2.70;;;10.30;69.30;;;;;;6215709;23;20702;-85
2021/04/26 01:00:36;;;;;;;10.63;2.67;;;10.30;69.70;;;;;;6217841;23;20152;-85
2021/04/26 01:03:02;;;;;;;9.20;2.80;;;10.20;70.20;;;;;;6217658;23;20151;-85
2021/04/26 01:05:31;;;;;;;9.77;3.17;;;10.10;70.80;;;;;;6216955;23;20238;-85
2021/04/26 01:07:57;;;;;;;11.33;2.90;;;10.20;71.10;;;;;;6216767;23;20167;-85
2021/04/26 01:10:26;;;;;;;7.00;2.53;;;10.10;71.00;;;;;;6216645;23;20239;-85
2021/04/26 01:13:18;;;;;;;6.53;2.93;;;10.00;72.00;;;;;;6216300;23;20635;-85
2021/04/26 01:16:21;;;;;;;11.43;2.63;;;9.90;72.60;;;;;;6216369;23;20181;-85
2021/04/26 01:19:00;;;;;;;8.23;2.60;;;9.90;73.30;;;;;;6216446;23;20195;-85
2021/04/26 01:22:04;;;;;;;6.37;2.77;;;9.90;73.90;;;;;;6217472;23;20176;-86
2021/04/26 01:25:07;;;;;;;6.33;2.70;;;9.80;74.50;;;;;;6217797;23;20171;-86
2021/04/26 01:28:04;;;;;;;5.37;2.37;;;9.60;75.60;;;;;;6217858;23;20156;-85
2021/04/26 01:30:39;;;;;;;9.23;2.90;;;9.60;76.40;;;;;;6217470;23;20239;-86
2021/04/26 01:33:16;;;;;;;10.87;2.73;;;9.60;77.30;;;;;;6217520;23;20147;-85
2021/04/26 01:35:41;;;;;;;10.03;2.93;;;9.80;76.10;;;;;;6216986;23;20157;-86
2021/04/26 01:38:30;;;;;;;10.13;2.87;;;9.80;75.90;;;;;;6217389;23;20270;-85
2021/04/26 01:40:57;;;;;;;8.60;2.80;;;9.60;77.10;;;;;;6217366;23;20183;-85
2021/04/26 01:43:26;;;;;;;9.37;2.60;;;9.50;77.60;;;;;;6217358;23;20140;-86
2021/04/26 01:46:01;;;;;;;14.17;3.33;;;9.50;78.20;;;;;;6217078;23;20160;-86
2021/04/26 01:48:30;;;;;;;7.70;2.77;;;9.50;78.60;;;;;;6217242;23;20609;-86
2021/04/26 01:51:00;;;;;;;7.60;2.80;;;9.50;78.90;;;;;;6216486;23;20181;-85
2021/04/26 01:53:27;;;;;;;9.00;3.00;;;9.50;78.90;;;;;;6217266;23;20676;-86
2021/04/26 01:56:00;;;;;;;6.20;3.00;;;9.40;79.70;;;;;;6216239;23;20232;-85
2021/04/26 01:58:28;;;;;;;7.33;2.90;;;9.40;81.10;;;;;;6217439;23;20246;-85
2021/04/26 02:00:55;;;;;;;9.73;2.90;;;9.30;81.00;;;;;;6217508;23;20136;-85
2021/04/26 02:03:23;;;;;;;11.83;3.10;;;9.30;80.90;;;;;;6217164;23;20581;-85
2021/04/26 02:05:51;;;;;;;13.00;2.60;;;9.50;80.20;;;;;;6216174;23;20578;-85
2021/04/26 02:08:17;;;;;;;10.47;2.80;;;9.40;80.90;;;;;;6216090;23;20235;-85
2021/04/26 02:10:43;;;;;;;10.20;3.00;;;9.30;81.40;;;;;;6215992;23;20570;-86
2021/04/26 02:13:10;;;;;;;6.10;2.60;;;9.20;82.60;;;;;;6216304;23;20211;-85
2021/04/26 02:15:37;;;;;;;4.63;2.87;;;9.10;83.40;;;;;;6216012;23;20184;-86
2021/04/26 02:18:03;;;;;;;9.47;3.03;;;9.00;83.90;;;;;;6215741;23;20666;-86
2021/04/26 02:20:29;;;;;;;6.37;2.60;;;9.10;84.00;;;;;;6216044;23;20148;-85
2021/04/26 02:22:54;;;;;;;9.03;2.67;;;9.10;84.10;;;;;;6215897;23;20175;-85
2021/04/26 02:25:20;;;;;;;8.83;2.67;;;9.00;84.80;;;;;;6216088;23;20162;-85
2021/04/26 02:27:47;;;;;;;5.90;2.90;;;9.00;84.60;;;;;;6216280;23;20156;-85
2021/04/26 02:30:14;;;;;;;9.67;3.50;;;9.20;83.60;;;;;;6216120;23;20144;-86
2021/04/26 02:32:47;;;;;;;10.70;3.27;;;9.10;84.10;;;;;;6215345;23;20469;-86
2021/04/26 02:35:16;;;;;;;11.40;3.10;;;9.00;84.60;;;;;;6216121;23;20229;-85
2021/04/26 02:37:55;;;;;;;9.27;3.23;;;8.90;85.40;;;;;;6215394;23;20175;-87
2021/04/26 02:40:22;;;;;;;7.30;3.03;;;9.00;85.60;;;;;;6215939;23;20154;-87
2021/04/26 02:42:50;;;;;;;10.03;4.00;;;9.10;84.90;;;;;;6216084;23;20148;-87
2021/04/26 02:45:21;;;;;;;9.03;3.27;;;9.10;85.10;;;;;;6215672;23;20152;-87
2021/04/26 02:47:48;;;;;;;7.60;3.23;;;9.00;85.40;;;;;;6215719;23;20145;-87
2021/04/26 02:50:24;;;;;;;12.27;2.80;;;9.10;84.90;;;;;;6215731;23;20148;-86
2021/04/26 02:52:51;;;;;;;10.93;3.33;;;9.00;85.40;;;;;;6215825;23;20163;-87
2021/04/26 02:55:21;;;;;;;6.60;3.07;;;8.90;85.90;;;;;;6190200;23;20153;-86
2021/04/26 02:57:52;;;;;;;11.03;3.27;;;8.70;87.10;;;;;;6191049;23;20153;-87
2021/04/26 03:00:22;;;;;;;9.83;3.70;;;8.60;88.00;;;;;;6190774;23;20160;-87
2021/04/26 03:02:52;;;;;;;7.53;3.30;;;8.60;88.20;;;;;;6190581;23;20167;-85
2021/04/26 03:05:19;;;;;;;10.00;3.27;;;8.60;88.40;;;;;;6192556;23;20526;-87
2021/04/26 03:07:48;;;;;;;9.57;3.10;;;8.50;89.50;;;;;;6195267;23;20144;-87
2021/04/26 03:10:17;;;;;;;8.67;3.10;;;8.50;89.30;;;;;;6191869;23;20595;-87
2021/04/26 03:12:48;;;;;;;6.80;3.37;;;8.40;89.40;;;;;;6192253;23;20148;-85
2021/04/26 03:15:22;;;;;;;8.97;3.23;;;8.40;90.20;;;;;;6191612;23;20140;-85
2021/04/26 03:17:52;;;;;;;16.57;3.27;;;8.30;90.30;;;;;;6191514;23;20520;-86
2021/04/26 03:20:21;;;;;;;10.73;4.27;;;8.20;90.60;;;;;;6191562;23;20244;-85
2021/04/26 03:22:48;;;;;;;7.97;2.90;;;8.20;91.20;;;;;;6190824;23;20197;-84
2021/04/26 03:25:19;;;;;;;9.67;3.17;;;8.20;90.90;;;;;;6191575;23;20139;-85
2021/04/26 03:27:47;;;;;;;8.43;3.00;;;8.10;91.00;;;;;;6191926;23;20149;-85
2021/04/26 03:30:15;;;;;;;10.70;3.10;;;8.00;91.60;;;;;;6191541;23;20153;-85
2021/04/26 03:32:42;;;;;;;6.57;2.67;;;8.10;91.40;;;;;;6190886;23;20185;-85
2021/04/26 03:35:11;;;;;;;12.13;3.47;;;8.10;91.30;;;;;;6190943;23;20153;-85
2021/04/26 03:37:38;;;;;;;9.90;2.60;;;8.00;91.70;;;;;;6188693;23;20517;-85
2021/04/26 03:40:05;;;;;;;9.73;3.10;;;8.10;91.60;;;;;;6187896;23;20168;-85
2021/04/26 03:42:31;;;;;;;11.67;3.13;;;8.30;91.10;;;;;;6189728;23;20585;-85
2021/04/26 03:44:56;;;;;;;4.90;2.90;;;8.10;91.20;;;;;;6188933;23;20149;-85
2021/04/26 03:47:22;;;;;;;6.23;3.10;;;8.10;91.20;;;;;;6189874;23;20278;-85
2021/04/26 03:49:48;;;;;;;12.60;2.97;;;8.00;91.60;;;;;;6192412;23;20206;-85
2021/04/26 03:52:13;;;;;;;6.83;3.40;;;8.10;91.20;;;;;;6198438;23;20176;-85
2021/04/26 03:54:40;;;;;;;7.43;2.90;;;8.10;91.20;;;;;;6221643;23;20168;-86
2021/04/26 03:57:06;;;;;;;9.07;3.73;;;8.00;91.70;;;;;;6223643;23;20569;-87
2021/04/26 03:59:31;;;;;;;11.57;3.57;;;8.00;92.00;;;;;;6215708;23;20176;-87
2021/04/26 04:01:57;;;;;;;8.80;3.00;;;7.90;92.30;;;;;;6215504;23;20153;-87
2021/04/26 04:04:23;;;;;;;10.40;3.10;;;7.80;92.50;;;;;;6214974;23;20170;-87
2021/04/26 04:06:48;;;;;;;12.37;3.40;;;7.90;92.50;;;;;;6215077;23;20523;-86
2021/04/26 04:09:16;;;;;;;7.87;3.23;;;7.80;92.40;;;;;;6215098;23;20148;-86
2021/04/26 04:11:42;;;;;;;9.50;3.10;;;7.70;92.60;;;;;;6215018;23;20461;-87
2021/04/26 04:14:07;;;;;;;12.67;3.70;;;7.70;92.70;;;;;;6214701;23;20242;-87
2021/04/26 04:16:33;;;;;;;12.10;3.13;;;7.70;92.80;;;;;;6214567;23;20152;-86
2021/04/26 04:18:59;;;;;;;11.10;3.40;;;7.30;93.80;;;;;;6214961;23;20181;-87
2021/04/26 04:21:25;;;;;;;9.77;3.50;;;7.30;94.20;;;;;;6215450;23;20143;-88
2021/04/26 04:23:51;;;;;;;10.73;3.90;;;7.50;93.70;;;;;;6215180;23;20570;-87
2021/04/26 04:26:18;;;;;;;12.53;3.27;;;7.40;93.80;;;;;;6215199;23;20601;-87
2021/04/26 04:28:44;;;;;;;14.83;3.60;;;7.50;93.70;;;;;;6215001;23;20152;-87
2021/04/26 04:31:09;;;;;;;9.77;3.50;;;7.40;93.90;;;;;;6214991;23;20149;-87
2021/04/26 04:33:35;;;;;;;18.30;3.47;;;7.40;94.00;;;;;;6214624;23;20148;-87
2021/04/26 04:36:01;;;;;;;13.70;3.97;;;7.40;93.80;;;;;;6214702;23;20148;-87
2021/04/26 04:38:26;;;;;;;7.37;3.73;;;7.40;94.00;;;;;;6214616;23;20239;-87
2021/04/26 04:40:53;;;;;;;10.17;3.80;;;7.50;93.80;;;;;;6214004;23;20143;-87
2021/04/26 04:43:20;;;;;;;8.63;3.30;;;7.50;93.70;;;;;;6212590;23;20160;-86
2021/04/26 04:45:46;;;;;;;19.00;3.90;;;7.70;93.20;;;;;;6213766;23;20186;-86
2021/04/26 04:48:12;;;;;;;14.87;3.60;;;7.80;93.00;;;;;;6210182;23;20505;-87
2021/04/26 04:50:37;;;;;;;11.47;3.20;;;7.80;93.20;;;;;;6211561;23;20151;-89
2021/04/26 04:53:03;;;;;;;7.20;3.33;;;7.70;93.00;;;;;;6213024;23;20192;-87
2021/04/26 04:55:29;;;;;;;11.03;3.40;;;7.80;92.90;;;;;;6188345;23;20157;-87
2021/04/26 04:57:54;;;;;;;18.23;4.00;;;7.70;92.80;;;;;;6190522;23;20146;-89
2021/04/26 05:00:21;;;;;;;17.37;3.50;;;7.70;92.90;;;;;;6190517;23;20156;-89
2021/04/26 05:02:47;;;;;;;8.63;3.37;;;7.60;93.10;;;;;;6190379;23;20152;-87
2021/04/26 05:05:14;;;;;;;11.67;3.17;;;7.50;93.60;;;;;;6190061;23;20164;-88
2021/04/26 05:07:39;;;;;;;12.30;4.07;;;7.60;93.50;;;;;;6189450;23;20150;-89
2021/04/26 05:10:06;;;;;;;11.30;3.50;;;7.70;93.30;;;;;;6188936;23;20148;-89
2021/04/26 05:12:32;;;;;;;12.57;3.63;;;7.80;92.80;;;;;;6189427;23;20163;-89
2021/04/26 05:14:58;;;;;;;13.20;3.57;;;7.70;93.20;;;;;;6188397;23;20140;-89
2021/04/26 05:17:25;;;;;;;11.20;3.37;;;7.70;93.10;;;;;;6190007;23;20152;-87
2021/04/26 05:19:51;;;;;;;8.93;4.00;;;7.80;92.50;;;;;;6189482;23;20207;-86
2021/04/26 05:22:17;;;;;;;9.77;4.00;;;7.70;92.70;;;;;;6205869;23;20156;-88
2021/04/26 05:24:43;;;;;;;7.43;3.63;;;7.60;93.20;;;;;;6214362;23;20160;-89
2021/04/26 05:27:09;;;;;;;6.20;3.37;;;7.70;93.20;;;;;;6202467;23;20223;-87
2021/04/26 05:29:34;;;;;;;10.33;3.80;;;7.80;92.90;;;;;;6193833;23;20148;-87
2021/04/26 05:32:01;;;;;;;9.03;3.30;;;7.80;93.10;;;;;;6191175;23;20167;-87
2021/04/26 05:34:27;;;;;;;7.47;3.63;;;7.80;92.50;;;;;;6190701;23;20172;-89
2021/04/26 05:36:54;;;;;;;8.17;3.53;;;7.90;92.80;;;;;;6165789;23;20676;-87
2021/04/26 07:27:49;;;;;;;10.17;4.87;;;10.20;78.60;;;;;;6219364;22;20261;-90
2021/04/26 07:30:16;;;;;;;11.00;4.47;;;10.20;78.80;;;;;;6192111;23;20157;-88
2021/04/26 07:32:44;;;;;;;10.30;4.50;;;10.20;79.00;;;;;;6191427;23;20239;-90
2021/04/26 07:35:11;;;;;;;10.93;4.90;;;10.30;78.90;;;;;;6192717;23;20146;-91
2021/04/26 07:37:38;;;;;;;10.27;4.53;;;10.40;77.50;;;;;;6192518;23;20194;-90
2021/04/26 07:40:06;;;;;;;9.33;4.93;;;10.50;77.10;;;;;;6193546;23;20180;-90
2021/04/26 07:42:32;;;;;;;11.07;4.87;;;10.60;75.80;;;;;;6192920;23;20137;-90
2021/04/26 07:44:58;;;;;;;15.33;5.20;;;10.70;75.80;;;;;;6194701;23;20159;-90
2021/04/26 07:47:24;;;;;;;9.43;4.60;;;10.70;75.50;;;;;;6194557;23;20182;-92
2021/04/26 07:49:49;;;;;;;9.90;4.97;;;10.70;76.20;;;;;;6215783;23;20136;-90
2021/04/26 07:52:15;;;;;;;11.17;4.90;;;10.70;75.40;;;;;;6209320;23;20189;-90
2021/04/26 07:54:41;;;;;;;11.77;5.27;;;10.70;75.30;;;;;;6190965;23;20650;-90
2021/04/26 07:57:07;;;;;;;10.13;4.40;;;10.80;75.50;;;;;;6191834;23;20532;-91
2021/04/26 07:59:33;;;;;;;11.43;4.80;;;10.90;75.20;;;;;;6190498;23;20191;-91
2021/04/26 08:01:59;;;;;;;13.30;4.67;;;10.90;75.30;;;;;;6190673;23;20228;-92
2021/04/26 08:04:25;;;;;;;12.57;5.50;;;10.90;75.10;;;;;;6190228;23;20237;-90
2021/04/26 08:06:51;;;;;;;11.27;4.83;;;11.20;74.40;;;;;;6190846;23;20151;-90
2021/04/26 08:09:17;;;;;;;11.53;5.43;;;11.30;73.10;;;;;;6227557;23;20154;-89
2021/04/26 08:11:43;;;;;;;11.43;4.90;;;11.40;72.80;;;;;;6194245;23;20152;-89
2021/04/26 08:14:09;;;;;;;11.97;4.83;;;11.40;72.50;;;;;;6193829;23;20147;-89
2021/04/26 08:16:35;;;;;;;9.10;5.17;;;11.50;71.70;;;;;;6192421;23;20152;-89
2021/04/26 08:19:01;;;;;;;10.67;5.23;;;11.50;72.00;;;;;;6194599;23;20190;-90
2021/04/26 08:21:28;;;;;;;13.43;5.23;;;11.60;70.60;;;;;;6195791;23;20144;-90
2021/04/26 08:23:57;;;;;;;10.70;5.00;;;11.70;70.10;;;;;;6196413;23;20620;-89
2021/04/26 08:26:24;;;;;;;8.80;4.50;;;11.80;69.10;;;;;;6177786;23;20196;-88
2021/04/26 08:28:59;;;;;;;8.63;4.83;;;11.70;69.90;;;;;;6217515;23;20148;-93
2021/04/26 08:31:24;;;;;;;7.93;4.53;;;11.80;69.00;;;;;;6219493;23;20149;-92
2021/04/26 08:33:50;;;;;;;8.10;4.63;;;11.90;69.00;;;;;;6218164;23;20198;-92
2021/04/26 08:36:19;;;;;;;7.23;4.30;;;11.80;68.50;;;;;;6218049;23;20648;-89
2021/04/26 08:38:44;;;;;;;8.73;4.83;;;11.90;69.30;;;;;;6217459;23;20194;-90
2021/04/26 08:41:14;;;;;;;8.50;4.73;;;12.10;67.90;;;;;;6217523;23;20543;-88
2021/04/26 08:43:45;;;;;;;10.83;5.07;;;12.10;67.10;;;;;;6216501;23;20154;-90
2021/04/26 08:46:11;;;;;;;9.13;5.13;;;12.10;66.40;;;;;;6218744;23;20144;-89
2021/04/26 08:48:37;;;;;;;14.33;5.83;;;12.00;66.60;;;;;;6220594;23;20223;-89
2021/04/26 08:51:05;;;;;;;11.00;5.20;;;12.10;64.80;;;;;;6220098;23;20174;-88
2021/04/26 08:53:31;;;;;;;9.90;4.67;;;12.30;66.30;;;;;;6217721;23;20152;-90
2021/04/26 08:55:57;;;;;;;10.53;5.03;;;12.30;65.50;;;;;;6218606;23;20245;-90
2021/04/26 08:58:23;;;;;;;10.23;4.63;;;12.40;64.10;;;;;;6217618;23;20262;-89
2021/04/26 09:00:49;;;;;;;7.63;4.13;;;12.40;64.00;;;;;;6217752;23;20154;-89
2021/04/26 09:03:16;;;;;;;8.60;4.03;;;12.50;63.00;;;;;;6217779;23;20198;-89
2021/04/26 09:05:47;;;;;;;8.87;4.27;;;12.40;61.90;;;;;;6218259;23;20148;-88
2021/04/26 09:08:23;;;;;;;11.17;4.40;;;12.60;62.60;;;;;;6220175;23;20142;-88
2021/04/26 09:10:51;;;;;;;11.17;4.43;;;12.70;62.40;;;;;;6217617;23;20166;-87
2021/04/26 09:13:29;;;;;;;7.23;4.07;;;12.80;61.30;;;;;;6218557;23;20153;-87
2021/04/26 09:16:17;;;;;;;9.87;4.80;;;12.80;60.30;;;;;;6218616;23;20180;-89
2021/04/26 09:18:47;;;;;;;11.77;4.10;;;12.80;61.40;;;;;;6217113;23;20557;-90
2021/04/26 09:21:16;;;;;;;11.63;4.37;;;12.80;61.50;;;;;;6219575;23;20464;-89
2021/04/26 09:23:42;;;;;;;9.47;3.90;;;12.90;59.30;;;;;;6219691;23;20455;-90
2021/04/26 09:26:25;;;;;;;11.07;4.03;;;12.80;59.90;;;;;;6219068;23;20174;-89
2021/04/26 09:29:24;;;;;;;6.97;3.03;;;12.90;58.90;;;;;;6219393;23;20177;-91
2021/04/26 09:32:11;;;;;;;12.13;4.30;;;13.00;57.30;;;;;;6219691;23;20147;-90
2021/04/26 09:34:53;;;;;;;8.43;4.10;;;13.10;57.20;;;;;;6219210;23;20148;-89
2021/04/26 09:37:26;;;;;;;8.53;4.33;;;13.10;57.70;;;;;;6221833;23;20171;-87
2021/04/26 09:40:05;;;;;;;9.57;4.20;;;13.10;57.50;;;;;;6221015;23;20490;-88
2021/04/26 09:42:37;;;;;;;7.30;3.70;;;13.30;56.90;;;;;;6221428;23;20604;-87
2021/04/26 09:45:23;;;;;;;8.73;3.77;;;13.40;57.60;;;;;;6220266;23;20240;-88
2021/04/26 09:48:15;;;;;;;5.83;3.40;;;13.50;56.20;;;;;;6220530;23;20144;-88
2021/04/26 09:50:50;;;;;;;8.33;3.87;;;13.40;55.40;;;;;;6219606;23;20186;-88
2021/04/26 09:53:16;;;;;;;8.27;4.07;;;13.40;55.00;;;;;;6219056;23;20607;-87
2021/04/26 09:55:42;;;;;;;9.33;3.77;;;13.50;55.00;;;;;;6218539;23;20586;-88
2021/04/26 09:58:08;;;;;;;5.20;3.63;;;13.50;56.30;;;;;;6218906;23;20219;-88
2021/04/26 10:00:35;;;;;;;6.93;3.97;;;13.50;55.40;;;;;;6219688;23;20155;-88
2021/04/26 10:03:01;;;;;;;9.30;4.03;;;13.60;55.40;;;;;;6222199;23;20200;-89
2021/04/26 10:05:27;;;;;;;10.57;4.20;;;13.60;55.70;;;;;;6218784;23;20148;-88
2021/04/26 10:07:53;;;;;;;7.60;4.27;;;13.60;55.90;;;;;;6218381;23;20180;-88
2021/04/26 10:10:19;;;;;;;6.90;4.10;;;13.70;55.90;;;;;;6217952;23;20144;-89
2021/04/26 10:12:44;;;;;;;7.53;4.03;;;13.70;55.90;;;;;;6217614;23;20148;-89
2021/04/26 10:15:11;;;;;;;7.30;3.97;;;13.70;55.20;;;;;;6217855;23;20203;-88
2021/04/26 10:17:39;;;;;;;7.23;3.70;;;13.60;54.90;;;;;;6217388;23;20155;-89
2021/04/26 10:20:05;;;;;;;4.70;3.43;;;13.70;53.70;;;;;;6217203;23;20187;-88
2021/04/26 10:22:38;;;;;;;7.40;3.80;;;13.80;54.90;;;;;;6217298;23;20148;-88
2021/04/26 10:25:05;;;;;;;6.37;3.53;;;13.80;54.30;;;;;;6219251;23;20176;-88
2021/04/26 10:27:35;;;;;;;9.27;3.83;;;13.80;54.10;;;;;;6219588;23;20171;-88
2021/04/26 10:30:07;;;;;;;7.53;3.57;;;13.90;53.10;;;;;;6224369;23;20140;-88
2021/04/26 10:32:56;;;;;;;3.97;3.40;;;14.00;52.90;;;;;;6242274;23;20178;-88
2021/04/26 10:35:22;;;;;;;9.33;3.87;;;14.00;53.20;;;;;;6243002;23;20133;-88
2021/04/26 10:37:48;;;;;;;5.93;3.57;;;14.00;53.00;;;;;;6231264;23;20179;-88
2021/04/26 10:40:21;;;;;;;6.60;3.70;;;14.10;51.80;;;;;;6221492;23;20172;-88
2021/04/26 10:42:51;;;;;;;4.03;3.17;;;14.10;51.40;;;;;;6218476;23;20147;-88
2021/04/26 10:45:22;;;;;;;7.07;4.00;;;14.20;52.00;;;;;;6219192;23;20148;-90
2021/04/26 10:48:09;;;;;;;6.47;3.73;;;14.30;50.90;;;;;;6219133;23;20227;-88
2021/04/26 10:50:38;;;;;;;9.07;3.80;;;14.30;52.30;;;;;;6218242;23;20154;-88
2021/04/26 10:53:07;;;;;;;6.97;3.30;;;14.20;52.00;;;;;;6217544;23;20152;-88
2021/04/26 10:55:32;;;;;;;5.07;3.53;;;14.20;51.90;;;;;;6219472;23;20170;-88
2021/04/26 10:58:00;;;;;;;5.33;3.03;;;14.30;51.50;;;;;;6218866;23;20577;-88
2021/04/26 11:00:26;;;;;;;6.73;3.57;;;14.40;51.40;;;;;;6217616;23;20171;-88
2021/04/26 11:03:09;;;;;;;5.07;3.17;;;14.60;50.50;;;;;;6218031;23;20148;-87
2021/04/26 11:05:44;;;;;;;5.60;3.40;;;14.80;49.40;;;;;;6218730;23;20176;-88
2021/04/26 11:08:29;;;;;;;6.67;3.73;;;14.90;49.40;;;;;;6218932;23;20151;-88
2021/04/26 11:11:08;;;;;;;14.47;3.83;;;15.40;48.00;;;;;;6220283;23;20155;-88
2021/04/26 11:13:54;;;;;;;6.30;3.50;;;16.20;47.80;;;;;;6217327;23;20148;-88
2021/04/26 11:16:27;;;;;;;6.17;3.27;;;17.60;45.70;;;;;;6218330;23;20159;-87
2021/04/26 11:18:59;;;;;;;7.20;3.50;;;18.70;44.50;;;;;;6219323;23;20172;-88
2021/04/26 11:21:43;;;;;;;9.40;3.30;;;20.10;44.20;;;;;;6218124;23;20151;-87
2021/04/26 11:24:21;;;;;;;8.77;4.27;;;21.50;41.50;;;;;;6218148;23;20162;-88
2021/04/26 11:27:13;;;;;;;5.33;3.50;;;22.40;38.70;;;;;;6219751;23;20172;-88
2021/04/26 11:29:49;;;;;;;6.47;3.83;;;23.40;38.40;;;;;;6218002;23;20151;-88
2021/04/26 11:32:16;;;;;;;6.77;3.30;;;24.30;35.90;;;;;;6217636;23;20241;-89
2021/04/26 11:39:26;;;;;;;;;;;;;;;;;;;;;
2021/04/26 11:41:52;;;;;;;8.77;3.30;;;26.80;34.40;;;;;;6220350;23;20543;-86
2021/04/26 11:44:26;;;;;;;8.48;3.78;;;27.50;33.50;;;;;;6216682;23;20195;-87
2021/04/26 11:46:51;;;;;;;9.60;3.45;;;27.70;32.10;;;;;;6217643;23;20148;-86
2021/04/26 11:49:22;;;;;;;6.68;3.60;;;27.70;32.30;;;;;;6219023;23;20596;-86
2021/04/26 11:51:53;;;;;;;5.55;3.25;;;28.30;32.50;;;;;;6221167;23;20148;-86
2021/04/26 11:54:28;;;;;;;5.20;3.17;;;28.90;32.20;;;;;;6217227;23;20198;-86
2021/04/26 11:57:06;;;;;;;5.05;3.10;;;28.90;31.40;;;;;;6216640;23;20187;-87
2021/04/26 11:59:33;;;;;;;7.10;3.83;;;29.50;31.30;;;;;;6217229;23;20579;-87
2021/04/26 12:01:59;;;;;;;4.95;3.28;;;30.00;31.10;;;;;;6217906;23;20600;-87
2021/04/26 12:04:42;;;;;;;9.02;3.70;;;30.30;29.60;;;;;;6217795;23;20467;-86
2021/04/26 12:07:10;;;;;;;9.82;3.00;;;30.30;30.00;;;;;;6216971;23;20151;-86
2021/04/26 12:09:39;;;;;;;6.25;2.58;;;30.50;33.00;;;;;;6217717;23;20152;-87
2021/04/26 12:12:10;;;;;;;8.18;3.63;;;31.20;30.80;;;;;;6219780;23;20147;-87
2021/04/26 12:14:42;;;;;;;7.10;3.83;;;31.20;29.10;;;;;;6216374;23;20202;-87
2021/04/26 12:17:24;;;;;;;6.88;3.85;;;31.50;30.40;;;;;;6216867;23;20223;-89
2021/04/26 12:19:51;;;;;;;9.82;3.80;;;31.80;29.00;;;;;;6217134;23;20488;-88
2021/04/26 12:22:20;;;;;;;7.68;3.72;;;32.00;28.50;;;;;;6215800;23;20231;-87
2021/04/26 12:24:46;;;;;;;6.22;3.63;;;31.90;28.80;;;;;;6218517;23;20159;-86
2021/04/26 12:27:14;;;;;;;5.40;3.60;;;31.80;29.00;;;;;;6218217;23;20251;-84
2021/04/26 12:29:41;;;;;;;6.50;3.95;;;31.40;28.60;;;;;;6216177;23;20147;-86
2021/04/26 12:32:20;;;;;;;8.60;4.07;;;31.70;28.70;;;;;;6216731;23;20155;-86
2021/04/26 12:34:51;;;;;;;8.65;3.95;;;32.30;28.70;;;;;;6217547;23;20147;-88
2021/04/26 12:37:19;;;;;;;5.53;3.55;;;32.80;28.80;;;;;;6217246;23;20171;-87
2021/04/26 12:39:46;;;;;;;5.63;3.88;;;32.60;28.10;;;;;;6217876;23;20182;-86
2021/04/26 12:42:13;;;;;;;6.53;3.55;;;32.50;28.30;;;;;;6217097;23;20148;-85
2021/04/26 12:44:39;;;;;;;5.65;3.38;;;32.30;28.30;;;;;;6218927;23;20144;-86
2021/04/26 12:47:21;;;;;;;8.35;4.03;;;32.10;28.10;;;;;;6217581;23;20176;-87
2021/04/26 12:49:49;;;;;;;5.43;3.60;;;32.90;27.90;;;;;;6217335;23;20186;-86
2021/04/26 12:52:17;;;;;;;7.97;3.67;;;33.50;28.40;;;;;;6216651;23;20186;-89
2021/04/26 12:55:25;;;;;;;5.28;3.35;;;33.40;27.80;;;;;;6217750;23;20231;-87
2021/04/26 12:57:52;;;;;;;7.93;3.95;;;33.20;28.10;;;;;;6212889;23;20254;-89
2021/04/26 13:00:18;;;;;;;7.95;3.75;;;33.90;27.60;;;;;;6218834;23;20527;-88
2021/04/26 13:02:43;;;;;;;5.10;3.58;;;34.30;27.50;;;;;;6221656;23;20216;-87
2021/04/26 13:05:09;;;;;;;7.65;3.78;;;34.80;27.40;;;;;;6221879;23;20182;-89
2021/04/26 13:07:35;;;;;;;6.72;3.38;;;34.80;27.00;;;;;;6221286;23;20227;-86
2021/04/26 13:10:11;;;;;;;7.22;3.90;;;34.70;27.40;;;;;;6219143;23;20140;-87
2021/04/26 13:12:37;;;;;;;6.82;3.58;;;34.40;27.00;;;;;;6212392;23;20151;-89
2021/04/26 13:15:25;;;;;;;6.95;3.80;;;34.90;26.90;;;;;;6220997;23;20154;-88
2021/04/26 13:17:52;;;;;;;6.63;3.92;;;35.10;27.10;;;;;;6218139;23;20152;-88
2021/04/26 13:20:23;;;;;;;11.27;3.83;;;34.80;26.90;;;;;;6223577;23;20180;-86
2021/04/26 13:22:49;;;;;;;5.03;3.50;;;34.50;27.60;;;;;;6241316;23;20144;-88
2021/04/26 13:25:17;;;;;;;6.00;3.90;;;35.20;27.40;;;;;;6238923;23;20152;-86
2021/04/26 13:27:46;;;;;;;9.15;4.13;;;35.10;26.80;;;;;;6237511;23;20663;-88
2021/04/26 13:30:14;;;;;;;3.97;3.53;;;35.20;27.30;;;;;;6222538;23;20231;-88
2021/04/26 13:32:41;;;;;;;4.82;3.40;;;35.20;26.50;;;;;;6222308;23;20147;-89
2021/04/26 13:35:08;;;;;;;7.80;4.10;;;35.20;26.40;;;;;;6222215;23;20175;-86
2021/04/26 13:37:34;;;;;;;8.48;3.80;;;35.10;26.30;;;;;;6221344;23;20265;-87
2021/04/26 13:40:01;;;;;;;8.38;3.80;;;35.00;27.00;;;;;;6220386;23;20180;-86
2021/04/26 13:42:27;;;;;;;7.22;4.55;;;34.60;26.70;;;;;;6228062;23;20182;-86
2021/04/26 13:44:53;;;;;;;6.75;3.45;;;35.00;26.40;;;;;;6224354;23;20577;-85
2021/04/26 13:47:19;;;;;;;9.70;3.63;;;35.20;26.70;;;;;;6218824;23;20172;-87
2021/04/26 13:49:44;;;;;;;7.35;3.53;;;35.00;26.80;;;;;;6218413;23;20238;-87
2021/04/26 13:52:11;;;;;;;8.10;3.80;;;34.80;27.40;;;;;;6217778;23;20151;-87
2021/04/26 13:54:37;;;;;;;6.30;3.80;;;35.10;26.50;;;;;;6217388;23;20152;-86
2021/04/26 13:57:03;;;;;;;7.03;3.67;;;34.90;26.40;;;;;;6215650;23;20192;-87
2021/04/26 13:59:29;;;;;;;10.07;4.25;;;34.80;26.50;;;;;;6219417;23;20203;-87
2021/04/26 14:01:56;;;;;;;7.53;3.67;;;35.20;26.50;;;;;;6218208;23;20486;-87
2021/04/26 14:04:22;;;;;;;4.53;3.67;;;35.90;26.20;;;;;;6218927;23;20179;-89
2021/04/26 14:06:48;;;;;;;5.88;3.97;;;35.60;25.90;;;;;;6217062;23;20147;-88
2021/04/26 14:09:14;;;;;;;5.85;3.67;;;35.10;26.20;;;;;;6218225;23;20870;-89
2021/04/26 14:11:46;;;;;;;8.90;4.20;;;35.00;26.20;;;;;;6217532;23;20151;-89
2021/04/26 14:14:15;;;;;;;4.35;3.50;;;35.40;26.40;;;;;;6217517;23;20190;-88
2021/04/26 14:16:41;;;;;;;7.00;3.80;;;35.60;26.60;;;;;;6218145;23;20231;-88
2021/04/26 14:19:07;;;;;;;7.13;3.63;;;35.80;26.00;;;;;;6217396;23;20249;-89
2021/04/26 14:21:33;;;;;;;4.82;4.10;;;35.60;26.40;;;;;;6217718;23;20151;-89
2021/04/26 14:24:00;;;;;;;5.97;3.95;;;35.90;26.30;;;;;;6217113;23;20144;-87
2021/04/26 14:26:25;;;;;;;5.55;3.67;;;35.90;26.00;;;;;;6217221;23;20168;-89
2021/04/26 14:28:51;;;;;;;6.55;4.03;;;35.70;25.60;;;;;;6217173;23;20652;-88
2021/04/26 14:31:16;;;;;;;5.93;4.07;;;35.90;25.60;;;;;;6217197;23;20151;-88
2021/04/26 14:33:42;;;;;;;7.38;4.38;;;36.00;25.60;;;;;;6217526;23;20164;-88
2021/04/26 14:36:08;;;;;;;5.45;4.03;;;35.60;25.70;;;;;;6217236;23;20167;-88
2021/04/26 14:38:34;;;;;;;4.80;3.95;;;35.70;25.90;;;;;;6217489;23;20176;-89
2021/04/26 14:41:00;;;;;;;5.82;3.38;;;35.80;26.00;;;;;;6217650;23;20644;-88
2021/04/26 14:43:26;;;;;;;6.32;3.63;;;35.80;25.30;;;;;;6219773;23;20198;-88
2021/04/26 14:45:52;;;;;;;8.05;3.88;;;35.70;25.30;;;;;;6217000;23;20148;-88
2021/04/26 14:48:17;;;;;;;5.47;3.90;;;35.50;25.90;;;;;;6216878;23;20231;-88
2021/04/26 14:50:43;;;;;;;6.35;3.78;;;35.20;25.30;;;;;;6217212;23;20175;-88
2021/04/26 14:53:09;;;;;;;4.90;3.58;;;35.20;25.40;;;;;;6216602;23;20148;-89